Idleyld Park, Oregon
Current Conditions -  °F | °C
As of 4:53 PM on Monday 24 Nov 2014 (Local Time) from KRBG Reporting Station
Overcast Overcast  
Wind Chill: 55°   Ceiling: 8000
Heat Index: 55°   Visibility: 10mi
Dew Point: 43°   Wind: 0mph
Humidity: 64%   Direction: NA
Pressure: 30.34"   Gusts: NA
Location:  43.32°N, 123.03°W
Report Text: KRBG 250053Z AUTO 00000KT 10SM OVC080 13/06 A3034 RMK AO2 SLP276 T01280061 TSNO
Loading
Personal Weather Stations






























Interactive Weather Map New forecast layout! Learn more

10-Day Weather Forecast

Advertisements
Track Severe Weather on mobile